Time;durP1;ratioP1;P1;durP2;ratioP2;P2;SDS_P1;SDS_P2;PMS_P1;PMS_P2;Temp;Humidity;BMP_temperature;BMP_pressure;BME280_temperature;BME280_humidity;BME280_pressure;Samples;Min_cycle;Max_cycle;Signal;HPM_P1;HPM_P2
2021/12/23 00:00:38;;;;;;;14.20;5.53;;;-1.70;99.90;;;;;;4263993;27;20039;-86
2021/12/23 00:02:40;;;;;;;12.63;5.13;;;-1.00;99.90;;;;;;4225577;28;20068;-86
2021/12/23 00:04:43;;;;;;;9.32;5.00;;;-1.00;99.90;;;;;;4237148;28;20534;-86
2021/12/23 00:06:45;;;;;;;14.05;5.28;;;-1.80;99.90;;;;;;4240943;28;20051;-86
2021/12/23 00:08:47;;;;;;;10.82;5.28;;;-1.80;99.90;;;;;;4224623;28;20548;-86
2021/12/23 00:10:49;;;;;;;10.63;4.90;;;-0.50;99.90;;;;;;4248801;27;20042;-86
2021/12/23 00:12:55;;;;;;;14.43;5.57;;;-0.70;99.90;;;;;;4224137;28;20059;-86
2021/12/23 00:14:58;;;;;;;11.45;5.07;;;-1.70;99.90;;;;;;4222425;28;20126;-86
2021/12/23 00:17:19;;;;;;;11.00;4.90;;;-1.70;99.90;;;;;;4222742;28;20131;-87
2021/12/23 00:24:00;;;;;;;13.50;4.93;;;-1.60;99.90;;;;;;4259118;27;20043;-86
2021/12/23 00:26:08;;;;;;;14.05;5.25;;;-0.50;99.90;;;;;;4223343;28;20046;-86
2021/12/23 00:28:10;;;;;;;13.60;5.15;;;-1.60;99.90;;;;;;4259160;27;20042;-86
2021/12/23 00:30:12;;;;;;;14.50;5.13;;;-0.80;99.90;;;;;;4239973;28;20177;-86
2021/12/23 00:32:14;;;;;;;11.32;5.03;;;-1.60;99.90;;;;;;4240280;28;20043;-87
2021/12/23 00:34:15;;;;;;;11.90;5.05;;;-1.60;99.90;;;;;;4240538;28;20040;-86
2021/12/23 00:36:20;;;;;;;14.07;5.32;;;-0.70;99.90;;;;;;4259371;27;20122;-87
2021/12/23 00:38:31;;;;;;;14.35;5.00;;;-0.30;99.90;;;;;;4240935;28;20047;-87
2021/12/23 00:40:33;;;;;;;11.95;5.05;;;-1.60;99.90;;;;;;4246956;27;20047;-86
2021/12/23 00:42:34;;;;;;;15.60;6.00;;;-1.60;99.90;;;;;;4259156;27;20042;-86
2021/12/23 00:44:45;;;;;;;13.25;4.97;;;-1.10;99.90;;;;;;4241510;28;20052;-86
2021/12/23 00:46:47;;;;;;;10.60;4.82;;;-2.60;99.90;;;;;;4240577;28;20039;-87
2021/12/23 00:48:50;;;;;;;15.15;5.47;;;-1.90;99.90;;;;;;4222533;28;20496;-87
2021/12/23 00:50:55;;;;;;;11.55;5.75;;;-0.20;99.90;;;;;;4256841;27;20039;-87
2021/12/23 00:53:07;;;;;;;12.02;5.32;;;-0.90;99.90;;;;;;4235248;28;20075;-86
2021/12/23 00:55:12;;;;;;;13.15;4.57;;;-1.50;99.90;;;;;;4256549;27;20117;-86
2021/12/23 00:57:13;;;;;;;12.43;5.35;;;-0.50;99.90;;;;;;4256472;27;20054;-86
2021/12/23 00:59:15;;;;;;;12.13;5.20;;;-1.60;99.90;;;;;;4274691;27;20039;-86
2021/12/23 01:01:19;;;;;;;12.80;4.68;;;-1.40;99.90;;;;;;4273468;27;20478;-86
2021/12/23 01:03:21;;;;;;;37.42;6.68;;;-1.40;99.90;;;;;;4254483;27;20043;-86
2021/12/23 01:05:28;;;;;;;10.23;5.00;;;-0.40;99.90;;;;;;4256051;27;20043;-87
2021/12/23 01:07:30;;;;;;;12.48;5.53;;;-1.20;99.90;;;;;;4275926;27;20068;-88
2021/12/23 01:09:31;;;;;;;14.57;5.65;;;-0.80;99.90;;;;;;4283736;27;20041;-87
2021/12/23 01:11:33;;;;;;;14.20;6.13;;;-0.80;99.90;;;;;;4229742;28;20044;-87
2021/12/23 01:13:37;;;;;;;15.07;6.15;;;-1.40;99.90;;;;;;4239412;28;20048;-86
2021/12/23 01:15:57;;;;;;;16.17;6.00;;;-1.00;99.90;;;;;;4239373;28;20601;-86
2021/12/23 01:18:20;;;;;;;14.30;5.57;;;-0.50;99.90;;;;;;4237802;28;20051;-86
2021/12/23 01:20:28;;;;;;;12.43;5.55;;;-0.80;99.90;;;;;;4220064;28;20099;-86
2021/12/23 01:22:33;;;;;;;15.32;5.22;;;-1.90;99.90;;;;;;4236997;28;20471;-86
2021/12/23 01:24:50;;;;;;;10.45;5.00;;;-0.50;99.90;;;;;;4255753;27;20043;-86
2021/12/23 01:26:53;;;;;;;12.75;5.70;;;-0.80;99.90;;;;;;4254784;27;20047;-87
2021/12/23 01:28:57;;;;;;;13.75;5.90;;;-1.20;99.90;;;;;;4263619;27;20119;-86
2021/12/23 01:30:59;;;;;;;13.48;5.82;;;-0.60;99.90;;;;;;4253500;27;20100;-86
2021/12/23 01:33:01;;;;;;;12.35;5.35;;;-1.20;99.90;;;;;;4252336;27;20094;-87
2021/12/23 01:35:03;;;;;;;13.93;5.97;;;-1.80;99.90;;;;;;4255356;27;20054;-87
2021/12/23 01:37:05;;;;;;;13.70;6.05;;;-1.10;99.90;;;;;;4220366;28;20590;-86
2021/12/23 01:39:07;;;;;;;14.48;5.78;;;0.20;99.90;;;;;;4255670;27;20104;-86
2021/12/23 01:41:10;;;;;;;13.77;5.25;;;-1.20;99.90;;;;;;4255664;27;20122;-86
2021/12/23 01:43:17;;;;;;;12.40;5.82;;;-1.20;99.90;;;;;;4240475;27;20050;-87
2021/12/23 01:45:32;;;;;;;16.52;6.38;;;-0.40;99.90;;;;;;4237477;28;20396;-87
2021/12/23 01:47:33;;;;;;;20.92;6.55;;;-1.10;99.90;;;;;;4253842;27;20091;-88
2021/12/23 01:49:40;;;;;;;13.25;6.22;;;-1.10;99.90;;;;;;4254701;27;20051;-88
2021/12/23 01:51:41;;;;;;;12.75;6.65;;;0.40;99.90;;;;;;4227479;28;20483;-88
2021/12/23 01:53:43;;;;;;;14.43;7.07;;;-1.20;99.90;;;;;;4243002;27;20039;-88
2021/12/23 01:55:46;;;;;;;13.30;6.22;;;-0.90;99.90;;;;;;4254387;27;20083;-88
2021/12/23 01:57:49;;;;;;;14.02;6.00;;;-0.40;99.90;;;;;;4273387;27;20035;-87
2021/12/23 01:59:52;;;;;;;12.10;5.47;;;-1.20;99.90;;;;;;4256444;27;20085;-88
2021/12/23 02:01:55;;;;;;;16.65;6.20;;;-1.10;99.90;;;;;;4237868;28;20090;-88
2021/12/23 02:03:57;;;;;;;16.48;6.07;;;-1.00;99.90;;;;;;4238427;28;20066;-88
2021/12/23 02:05:59;;;;;;;15.15;6.55;;;-0.20;99.90;;;;;;4238617;28;20093;-87
2021/12/23 02:08:00;;;;;;;19.08;5.88;;;-1.20;99.90;;;;;;4219556;28;20052;-88
2021/12/23 02:10:09;;;;;;;14.32;5.95;;;-0.60;99.90;;;;;;4221389;28;20042;-87
2021/12/23 02:12:11;;;;;;;;;;;-1.10;99.90;;;;;;4221828;28;20040;-87
2021/12/23 02:14:14;;;;;;;16.15;5.60;;;-1.10;99.90;;;;;;4255984;28;19927;-88
2021/12/23 02:16:17;;;;;;;15.52;5.90;;;-0.50;99.90;;;;;;4237502;28;20100;-88
2021/12/23 02:18:20;;;;;;;17.35;6.15;;;-0.50;99.90;;;;;;4220916;28;20064;-88
2021/12/23 02:20:28;;;;;;;16.92;6.65;;;-1.30;99.90;;;;;;4237599;28;20071;-87
2021/12/23 02:22:31;;;;;;;15.75;6.32;;;-1.40;99.90;;;;;;4225683;28;20129;-88
2021/12/23 02:24:38;;;;;;;19.98;6.38;;;-0.90;99.90;;;;;;4238222;28;20058;-87
2021/12/23 02:26:41;;;;;;;16.77;6.30;;;-1.30;99.90;;;;;;4221866;28;20052;-87
2021/12/23 02:28:42;;;;;;;17.67;6.78;;;-0.90;99.90;;;;;;4233659;28;20055;-87
2021/12/23 02:30:51;;;;;;;16.38;6.20;;;0.50;99.90;;;;;;4274010;27;20051;-86
2021/12/23 02:32:55;;;;;;;17.70;7.20;;;0.30;99.90;;;;;;4238383;28;20047;-87
2021/12/23 02:34:57;;;;;;;16.33;6.25;;;0.00;99.90;;;;;;4246491;28;20046;-87
2021/12/23 02:36:59;;;;;;;14.07;6.28;;;0.50;99.90;;;;;;4255351;28;20055;-87
2021/12/23 02:39:04;;;;;;;14.48;6.35;;;-0.10;99.90;;;;;;4256124;28;20043;-87
2021/12/23 02:41:06;;;;;;;14.18;6.45;;;-0.80;99.90;;;;;;4237601;28;20047;-87
2021/12/23 02:43:12;;;;;;;13.50;6.40;;;-0.80;99.90;;;;;;4219481;28;20047;-87
2021/12/23 02:45:14;;;;;;;16.67;6.47;;;-0.80;99.90;;;;;;4255875;28;20506;-88
2021/12/23 02:47:18;;;;;;;17.73;6.68;;;-0.70;99.90;;;;;;4226599;28;20051;-87
2021/12/23 02:49:21;;;;;;;16.15;6.18;;;-0.70;99.90;;;;;;4237510;28;20074;-88
2021/12/23 02:51:22;;;;;;;11.98;5.82;;;0.50;99.90;;;;;;4237357;28;20111;-87
2021/12/23 02:53:24;;;;;;;12.80;5.93;;;-0.70;99.90;;;;;;4250103;28;20043;-87
2021/12/23 02:55:25;;;;;;;14.55;5.55;;;-0.40;99.90;;;;;;4237407;28;20532;-86
2021/12/23 02:57:30;;;;;;;14.95;5.50;;;-0.70;99.90;;;;;;4252368;28;20043;-88
2021/12/23 02:59:33;;;;;;;17.48;6.28;;;-0.70;99.90;;;;;;4256179;28;20043;-88
2021/12/23 03:01:40;;;;;;;14.23;5.82;;;-0.90;99.90;;;;;;4237404;28;20044;-88
2021/12/23 03:03:43;;;;;;;15.77;6.05;;;0.60;99.90;;;;;;4239522;28;20121;-87
2021/12/23 03:05:54;;;;;;;16.55;6.75;;;-0.60;99.90;;;;;;4239620;28;20043;-88
2021/12/23 03:07:57;;;;;;;15.27;6.03;;;0.30;99.90;;;;;;4240422;28;20600;-88
2021/12/23 03:09:58;;;;;;;20.05;6.82;;;-0.90;99.90;;;;;;4255077;27;20165;-88
2021/12/23 03:12:00;;;;;;;18.08;6.78;;;-0.90;99.90;;;;;;4257483;27;20046;-88
2021/12/23 03:14:02;;;;;;;17.88;6.13;;;-0.70;99.90;;;;;;4256789;27;20067;-88
2021/12/23 03:16:05;;;;;;;14.35;6.10;;;0.20;99.90;;;;;;4257304;27;20048;-88
2021/12/23 03:18:06;;;;;;;15.52;7.13;;;-1.00;99.90;;;;;;4239786;28;20051;-88
2021/12/23 03:20:07;;;;;;;16.75;6.72;;;-0.70;99.90;;;;;;4239773;28;20104;-88
2021/12/23 03:22:15;;;;;;;17.38;6.47;;;-0.60;99.90;;;;;;4240008;28;20047;-88
2021/12/23 03:24:21;;;;;;;13.52;5.80;;;-0.60;99.90;;;;;;4240465;28;20085;-88
2021/12/23 03:26:30;;;;;;;16.13;6.75;;;-0.70;99.90;;;;;;4239415;28;20455;-88
2021/12/23 03:28:33;;;;;;;14.00;6.65;;;-0.70;99.90;;;;;;4258410;27;20043;-88
2021/12/23 03:30:43;;;;;;;14.57;6.18;;;-0.70;99.90;;;;;;4238707;28;20043;-87
2021/12/23 03:32:45;;;;;;;12.82;6.13;;;-0.10;99.90;;;;;;4240037;28;20042;-87
2021/12/23 03:34:47;;;;;;;16.13;6.85;;;-0.60;99.90;;;;;;4222750;28;20052;-88
2021/12/23 03:36:50;;;;;;;15.18;5.78;;;-0.40;99.90;;;;;;4222455;28;20039;-88
2021/12/23 03:38:52;;;;;;;15.45;5.95;;;-0.60;99.90;;;;;;4238748;28;20157;-87
2021/12/23 03:40:55;;;;;;;14.68;6.35;;;-0.10;99.90;;;;;;4224976;28;20044;-87
2021/12/23 03:42:57;;;;;;;14.98;7.18;;;-0.30;99.90;;;;;;4247362;28;20047;-87
2021/12/23 03:44:59;;;;;;;14.50;5.72;;;-0.70;99.90;;;;;;4260504;27;20047;-86
2021/12/23 03:47:02;;;;;;;15.43;5.72;;;-0.60;99.90;;;;;;4254796;27;20092;-88
2021/12/23 03:49:06;;;;;;;17.30;6.28;;;0.10;99.90;;;;;;4237783;28;20075;-88
2021/12/23 03:51:08;;;;;;;12.90;6.28;;;0.10;99.90;;;;;;4273226;27;20102;-88
2021/12/23 03:53:10;;;;;;;13.75;6.25;;;-0.60;99.90;;;;;;4230524;28;20047;-88
2021/12/23 03:55:13;;;;;;;16.25;7.13;;;-0.20;99.90;;;;;;4238527;28;20043;-88
2021/12/23 03:57:15;;;;;;;15.27;6.38;;;0.20;99.90;;;;;;4221818;28;20095;-87
2021/12/23 03:59:17;;;;;;;13.25;6.05;;;0.10;99.90;;;;;;4223065;28;20062;-87
2021/12/23 04:01:19;;;;;;;14.35;5.95;;;-0.50;99.90;;;;;;4248889;27;20058;-88
2021/12/23 04:03:21;;;;;;;18.60;7.05;;;-0.50;99.90;;;;;;4221417;28;20040;-88
2021/12/23 04:05:23;;;;;;;15.52;6.15;;;-0.40;99.90;;;;;;4237815;28;20054;-88
2021/12/23 04:07:24;;;;;;;17.60;6.72;;;0.10;99.90;;;;;;4237927;27;20109;-87
2021/12/23 04:09:26;;;;;;;13.50;6.20;;;-0.40;99.90;;;;;;4255639;27;20049;-88
2021/12/23 04:11:28;;;;;;;16.63;6.60;;;-1.00;99.90;;;;;;4241780;27;20066;-88
2021/12/23 04:13:30;;;;;;;13.00;6.03;;;0.50;99.90;;;;;;4238305;28;20054;-88
2021/12/23 04:15:33;;;;;;;15.27;6.50;;;-1.10;99.90;;;;;;4220268;28;20051;-87
2021/12/23 04:17:36;;;;;;;17.75;5.93;;;-0.40;99.90;;;;;;4234523;28;20152;-87
2021/12/23 04:19:38;;;;;;;16.70;6.78;;;-0.40;99.90;;;;;;4255501;27;20035;-87
2021/12/23 04:21:40;;;;;;;14.30;6.32;;;-0.40;99.90;;;;;;4273927;27;20046;-88
2021/12/23 04:23:45;;;;;;;12.43;5.18;;;-0.30;99.90;;;;;;4222875;28;20427;-88
2021/12/23 04:25:48;;;;;;;12.82;6.22;;;-0.30;99.90;;;;;;4238489;28;20570;-89
2021/12/23 04:27:52;;;;;;;13.02;5.60;;;-0.30;99.90;;;;;;4239176;28;20137;-88
2021/12/23 04:29:53;;;;;;;14.65;5.93;;;0.00;99.90;;;;;;4221157;28;20044;-88
2021/12/23 04:31:55;;;;;;;17.42;6.43;;;-0.40;99.90;;;;;;4237489;28;20136;-88
2021/12/23 04:33:57;;;;;;;15.32;7.10;;;-0.80;99.90;;;;;;4237519;27;20046;-88
2021/12/23 04:35:59;;;;;;;13.73;6.63;;;-1.00;99.80;;;;;;4254148;27;20514;-88
2021/12/23 04:38:01;;;;;;;18.15;6.05;;;-0.30;99.90;;;;;;4253898;27;20079;-88
2021/12/23 04:40:06;;;;;;;16.60;6.22;;;1.10;99.90;;;;;;4252684;27;20043;-88
2021/12/23 04:42:07;;;;;;;14.40;6.68;;;-0.20;99.90;;;;;;4236922;28;20044;-88
2021/12/23 04:44:08;;;;;;;15.73;6.18;;;-0.50;99.90;;;;;;4238041;28;20087;-89
2021/12/23 04:46:16;;;;;;;14.48;7.30;;;1.30;99.90;;;;;;4238461;27;20534;-88
2021/12/23 04:48:18;;;;;;;15.07;6.93;;;0.90;99.90;;;;;;4241314;27;20172;-88
2021/12/23 04:50:21;;;;;;;14.02;6.18;;;0.70;99.90;;;;;;4220712;28;20093;-88
2021/12/23 04:52:23;;;;;;;15.05;5.93;;;-0.20;99.60;;;;;;4225199;28;20139;-88
2021/12/23 04:54:26;;;;;;;16.05;7.15;;;0.80;99.90;;;;;;4237964;28;20055;-89
2021/12/23 04:56:28;;;;;;;17.63;6.13;;;-0.20;99.50;;;;;;4220431;28;20433;-88
2021/12/23 04:58:33;;;;;;;16.58;5.72;;;0.90;99.90;;;;;;4220625;28;20402;-88
2021/12/23 05:00:36;;;;;;;14.52;6.18;;;-0.20;99.90;;;;;;4236843;28;20461;-88
2021/12/23 05:02:37;;;;;;;15.70;7.13;;;-0.20;99.80;;;;;;4255287;27;20054;-88
2021/12/23 05:04:40;;;;;;;16.70;5.93;;;-0.20;99.70;;;;;;4243919;27;20039;-88
2021/12/23 05:06:43;;;;;;;10.77;5.40;;;-0.10;99.40;;;;;;4254512;27;20100;-88
2021/12/23 05:08:46;;;;;;;15.05;6.88;;;-0.20;99.30;;;;;;4255071;27;20035;-88
2021/12/23 05:10:47;;;;;;;17.23;6.03;;;0.70;99.90;;;;;;4237519;28;20046;-88
2021/12/23 05:12:56;;;;;;;17.23;6.72;;;0.60;99.70;;;;;;4237893;28;20052;-88
2021/12/23 05:14:57;;;;;;;13.25;6.60;;;-0.20;99.30;;;;;;4242661;27;20044;-88
2021/12/23 05:16:59;;;;;;;14.65;5.70;;;0.40;99.80;;;;;;4229318;28;20049;-88
2021/12/23 05:19:01;;;;;;;16.88;5.82;;;-0.60;99.60;;;;;;4220389;28;20048;-88
2021/12/23 05:21:03;;;;;;;14.48;6.75;;;-0.30;99.60;;;;;;4255531;27;20051;-88
2021/12/23 05:23:07;;;;;;;15.48;5.43;;;0.50;99.60;;;;;;4254171;27;20074;-88
2021/12/23 05:25:10;;;;;;;16.85;6.50;;;0.00;99.10;;;;;;4237252;28;20561;-87
2021/12/23 05:27:14;;;;;;;15.52;5.47;;;-0.10;99.20;;;;;;4272909;27;20062;-87
2021/12/23 05:29:18;;;;;;;19.15;6.63;;;-0.30;99.30;;;;;;4243212;27;20507;-87
2021/12/23 05:31:19;;;;;;;12.43;5.82;;;0.80;99.40;;;;;;4263901;27;20031;-87
2021/12/23 05:33:21;;;;;;;16.05;6.35;;;-0.10;99.10;;;;;;4250774;28;20059;-88
2021/12/23 05:35:22;;;;;;;14.18;6.72;;;0.00;98.80;;;;;;4250713;28;20051;-87
2021/12/23 05:37:23;;;;;;;12.98;5.68;;;1.10;98.90;;;;;;4233247;28;20047;-88
2021/12/23 05:39:27;;;;;;;12.45;6.32;;;1.40;99.20;;;;;;4249737;28;20031;-88
2021/12/23 05:41:35;;;;;;;16.80;5.97;;;0.20;99.00;;;;;;4254703;27;20077;-87
2021/12/23 05:43:58;;;;;;;17.83;6.65;;;0.10;99.00;;;;;;4241573;28;20067;-88
2021/12/23 05:46:11;;;;;;;16.13;6.10;;;0.20;98.00;;;;;;4276297;27;20043;-88
2021/12/23 05:48:35;;;;;;;13.65;5.88;;;0.70;98.40;;;;;;4262779;27;20475;-88
2021/12/23 05:50:36;;;;;;;16.23;5.78;;;0.30;98.10;;;;;;4257340;27;20043;-88
2021/12/23 05:52:39;;;;;;;17.83;6.10;;;0.90;98.90;;;;;;4260962;27;20102;-88
2021/12/23 05:54:41;;;;;;;13.90;5.72;;;1.50;98.50;;;;;;4220148;28;20123;-88
2021/12/23 05:56:41;;;;;;;16.83;6.05;;;1.00;98.80;;;;;;4235246;28;20092;-88
2021/12/23 05:58:42;;;;;;;14.55;5.57;;;1.30;98.60;;;;;;4225349;28;20073;-88
2021/12/23 06:00:44;;;;;;;13.95;6.25;;;0.10;98.60;;;;;;4219206;28;20044;-88
2021/12/23 06:02:47;;;;;;;13.45;5.85;;;0.30;98.20;;;;;;4235563;28;20069;-88
2021/12/23 06:04:49;;;;;;;12.40;5.38;;;0.20;98.30;;;;;;4225855;28;20055;-88
2021/12/23 06:06:50;;;;;;;15.60;6.22;;;0.90;98.50;;;;;;4218352;28;20048;-88
2021/12/23 06:08:51;;;;;;;12.20;5.45;;;1.00;98.60;;;;;;4236210;28;20082;-88
2021/12/23 06:10:53;;;;;;;18.25;6.70;;;0.30;98.30;;;;;;4234650;28;20122;-88
2021/12/23 06:12:55;;;;;;;11.68;5.85;;;0.30;98.30;;;;;;4219600;28;20055;-87
2021/12/23 06:14:58;;;;;;;16.95;6.47;;;0.20;98.40;;;;;;4242206;28;20051;-86
2021/12/23 06:17:01;;;;;;;14.93;6.03;;;0.10;98.40;;;;;;4227256;28;20044;-87
2021/12/23 06:19:04;;;;;;;17.10;6.95;;;1.20;98.80;;;;;;4235644;28;20519;-88
2021/12/23 06:21:11;;;;;;;14.82;6.50;;;0.20;98.30;;;;;;4219252;28;20058;-87
2021/12/23 06:23:12;;;;;;;14.85;6.22;;;1.20;98.80;;;;;;4235312;28;20591;-87
2021/12/23 06:25:14;;;;;;;14.82;5.85;;;1.40;98.80;;;;;;4235190;28;20054;-87
2021/12/23 06:27:19;;;;;;;16.77;6.22;;;-0.30;98.50;;;;;;4253224;28;20043;-87
2021/12/23 06:29:20;;;;;;;14.70;6.20;;;-0.90;98.10;;;;;;4235019;28;20050;-87
2021/12/23 06:31:22;;;;;;;16.42;6.88;;;1.50;98.70;;;;;;4252854;28;20171;-86
2021/12/23 06:33:24;;;;;;;14.55;6.03;;;0.30;98.40;;;;;;4218507;28;20584;-87
2021/12/23 06:35:28;;;;;;;14.32;6.15;;;0.30;98.20;;;;;;4252729;27;20415;-87
2021/12/23 06:37:29;;;;;;;15.88;6.82;;;0.30;97.90;;;;;;4252963;27;20055;-87
2021/12/23 06:39:32;;;;;;;17.17;7.28;;;0.90;98.00;;;;;;4236906;28;20042;-87
2021/12/23 06:41:33;;;;;;;18.27;6.78;;;0.80;97.50;;;;;;4260002;27;20099;-87
2021/12/23 06:43:35;;;;;;;18.50;6.97;;;0.40;98.30;;;;;;4251968;27;20047;-87
2021/12/23 06:45:36;;;;;;;15.65;6.57;;;0.90;97.70;;;;;;4238618;28;20043;-87
2021/12/23 06:47:38;;;;;;;15.00;6.28;;;0.30;97.80;;;;;;4224363;28;20139;-87
2021/12/23 06:49:38;;;;;;;17.35;6.30;;;0.30;97.70;;;;;;4257086;27;20091;-87
2021/12/23 06:51:39;;;;;;;14.88;6.60;;;0.70;98.10;;;;;;4242999;27;20090;-86
2021/12/23 06:53:40;;;;;;;15.27;6.93;;;0.50;97.70;;;;;;4251121;27;20050;-87
2021/12/23 06:55:50;;;;;;;17.20;6.63;;;1.00;97.90;;;;;;4255708;27;20051;-85
2021/12/23 06:57:55;;;;;;;14.35;6.50;;;0.30;97.60;;;;;;4255122;27;20126;-85
2021/12/23 06:59:58;;;;;;;15.10;6.90;;;0.30;97.70;;;;;;4253963;27;20050;-86
2021/12/23 07:01:59;;;;;;;17.77;7.20;;;0.40;97.70;;;;;;4253954;27;20541;-86
2021/12/23 07:04:14;;;;;;;18.15;7.00;;;0.40;97.70;;;;;;4253286;27;20039;-86
2021/12/23 07:06:19;;;;;;;15.88;7.38;;;0.40;97.30;;;;;;4255141;27;20043;-87
2021/12/23 07:08:29;;;;;;;17.00;7.15;;;0.40;97.70;;;;;;4237715;28;20051;-87
2021/12/23 07:10:32;;;;;;;19.70;7.03;;;1.00;97.60;;;;;;4261662;27;20045;-87
2021/12/23 07:12:35;;;;;;;20.95;7.30;;;0.40;97.40;;;;;;4273190;27;20050;-86
2021/12/23 07:14:38;;;;;;;20.58;7.00;;;0.50;97.50;;;;;;4255185;27;20069;-88
2021/12/23 07:16:42;;;;;;;19.67;6.97;;;1.50;97.80;;;;;;4255861;27;20490;-86
2021/12/23 07:18:45;;;;;;;16.25;6.78;;;1.40;98.00;;;;;;4273699;27;20050;-86
2021/12/23 07:20:45;;;;;;;15.10;6.18;;;0.30;97.80;;;;;;4239787;28;20049;-86
2021/12/23 07:22:47;;;;;;;18.98;7.53;;;0.80;98.00;;;;;;4230449;28;20079;-86
2021/12/23 07:24:48;;;;;;;22.20;7.93;;;;;;;;;;4258282;27;20076;-86
2021/12/23 07:26:58;;;;;;;21.83;8.90;;;0.30;97.50;;;;;;4240813;27;20051;-86
2021/12/23 07:28:59;;;;;;;20.02;8.73;;;0.30;98.20;;;;;;4270565;27;20039;-86
2021/12/23 07:31:00;;;;;;;20.52;7.70;;;1.30;98.50;;;;;;4239098;28;20051;-85
2021/12/23 07:33:02;;;;;;;28.17;8.75;;;0.30;98.10;;;;;;4266783;27;20471;-85
2021/12/23 07:35:06;;;;;;;18.52;7.90;;;0.30;98.30;;;;;;4257101;27;20035;-85
2021/12/23 07:37:07;;;;;;;19.42;7.13;;;0.30;98.10;;;;;;4254263;27;20526;-86
2021/12/23 07:39:08;;;;;;;23.15;9.88;;;1.50;98.70;;;;;;4255301;27;20051;-85
2021/12/23 07:41:10;;;;;;;24.30;9.20;;;1.20;98.30;;;;;;4255442;27;20047;-85
2021/12/23 07:45:30;;;;;;;17.42;6.90;;;0.50;98.30;;;;;;4257167;27;20047;-85
2021/12/23 07:47:33;;;;;;;21.00;8.80;;;-0.10;98.20;;;;;;4241747;27;20459;-85
2021/12/23 07:49:35;;;;;;;21.33;8.27;;;0.10;98.40;;;;;;4237349;28;20048;-86
2021/12/23 07:51:38;;;;;;;20.10;7.80;;;0.30;98.10;;;;;;4239204;28;20407;-85
2021/12/23 07:53:42;;;;;;;21.95;8.38;;;1.00;98.40;;;;;;4244060;27;20840;-84
2021/12/23 07:55:50;;;;;;;25.73;9.27;;;1.10;98.50;;;;;;4239061;28;20127;-84
2021/12/23 07:57:52;;;;;;;19.88;8.38;;;1.50;98.60;;;;;;4239482;28;20077;-84
2021/12/23 07:59:58;;;;;;;21.75;8.77;;;0.30;98.30;;;;;;4254949;27;20050;-85
2021/12/23 08:02:00;;;;;;;21.15;9.00;;;0.60;98.40;;;;;;4240982;28;20051;-85
2021/12/23 08:04:01;;;;;;;19.83;8.98;;;0.30;98.30;;;;;;4231267;28;20812;-85
2021/12/23 08:06:04;;;;;;;21.98;8.45;;;0.60;98.50;;;;;;4239430;28;20046;-85
2021/12/23 08:08:06;;;;;;;19.33;8.00;;;0.00;98.40;;;;;;4240491;28;20040;-85
2021/12/23 08:10:08;;;;;;;20.45;8.32;;;1.00;99.00;;;;;;4227328;28;20148;-85
2021/12/23 08:12:09;;;;;;;23.70;9.40;;;0.20;98.40;;;;;;4251057;27;20047;-85
2021/12/23 08:14:10;;;;;;;19.65;8.38;;;0.20;98.60;;;;;;4240798;28;20055;-85
2021/12/23 08:16:12;;;;;;;22.63;8.35;;;0.20;98.60;;;;;;4241765;27;20036;-84
2021/12/23 08:18:14;;;;;;;19.13;8.52;;;0.20;98.90;;;;;;4225080;28;20048;-86
2021/12/23 08:20:17;;;;;;;18.50;8.20;;;0.30;98.70;;;;;;4254707;27;20042;-85
2021/12/23 08:22:18;;;;;;;18.40;8.02;;;1.10;98.90;;;;;;4252031;27;20051;-85
2021/12/23 08:24:20;;;;;;;19.38;7.35;;;0.20;98.80;;;;;;4256423;27;20050;-84
2021/12/23 08:26:29;;;;;;;20.85;7.45;;;0.20;98.80;;;;;;4238941;28;20576;-85
2021/12/23 08:28:31;;;;;;;20.10;7.68;;;0.10;98.80;;;;;;4251180;27;20105;-85
2021/12/23 08:30:34;;;;;;;23.20;8.23;;;0.80;98.70;;;;;;4223268;28;20071;-84
2021/12/23 08:32:37;;;;;;;23.17;9.48;;;0.30;98.80;;;;;;4222888;28;20181;-85
2021/12/23 08:34:44;;;;;;;21.92;8.27;;;-0.10;98.80;;;;;;4246911;27;20553;-86
2021/12/23 08:36:45;;;;;;;17.83;7.82;;;0.10;98.90;;;;;;4221644;28;20052;-84
2021/12/23 08:38:46;;;;;;;19.48;8.13;;;0.80;99.30;;;;;;4239237;28;20392;-87
2021/12/23 08:40:53;;;;;;;23.35;9.10;;;1.60;99.60;;;;;;4221810;28;20052;-87
2021/12/23 08:42:58;;;;;;;21.85;8.02;;;0.60;99.30;;;;;;4220657;28;20048;-85
2021/12/23 08:45:04;;;;;;;20.92;8.38;;;0.30;99.00;;;;;;4239418;28;20117;-87
2021/12/23 08:47:05;;;;;;;19.80;8.50;;;0.10;98.80;;;;;;4248481;27;20044;-86
2021/12/23 08:49:07;;;;;;;17.63;7.57;;;0.10;99.20;;;;;;4258681;27;20035;-84
2021/12/23 08:51:09;;;;;;;24.83;9.27;;;0.10;99.20;;;;;;4236079;28;20047;-86
2021/12/23 08:53:12;;;;;;;19.83;8.60;;;0.00;99.30;;;;;;4232701;28;20479;-84
2021/12/23 08:55:14;;;;;;;22.13;7.80;;;1.20;99.50;;;;;;4232541;28;20040;-84
2021/12/23 08:57:28;;;;;;;19.50;8.65;;;1.00;99.30;;;;;;4238245;28;20044;-84
2021/12/23 08:59:30;;;;;;;18.52;6.97;;;1.40;99.80;;;;;;4225717;28;20090;-84
2021/12/23 09:01:34;;;;;;;23.27;8.52;;;0.00;99.30;;;;;;4243485;27;20073;-83
2021/12/23 09:03:35;;;;;;;23.33;9.00;;;-0.20;99.20;;;;;;4227021;28;20039;-86
2021/12/23 09:05:40;;;;;;;24.77;8.65;;;-0.90;99.10;;;;;;4239703;28;20191;-86
2021/12/23 09:07:42;;;;;;;23.48;8.55;;;0.10;99.10;;;;;;4238624;27;20586;-85
2021/12/23 09:09:46;;;;;;;22.90;9.15;;;0.10;99.30;;;;;;4249745;27;20052;-85
2021/12/23 09:11:47;;;;;;;23.10;9.20;;;0.00;99.00;;;;;;4240278;27;20048;-83
2021/12/23 09:13:54;;;;;;;22.33;9.52;;;-0.70;99.40;;;;;;4250636;27;20032;-84
2021/12/23 09:16:00;;;;;;;23.88;9.15;;;1.60;99.90;;;;;;4250896;27;20118;-85
2021/12/23 09:18:02;;;;;;;21.98;8.18;;;0.10;99.50;;;;;;4238887;27;20122;-84
2021/12/23 09:20:07;;;;;;;23.38;8.82;;;1.30;99.90;;;;;;4227636;28;20429;-85
2021/12/23 09:22:11;;;;;;;17.90;7.95;;;-1.10;99.10;;;;;;4226033;28;20047;-86
2021/12/23 09:24:16;;;;;;;22.35;9.02;;;0.10;99.30;;;;;;4223251;28;20051;-87
2021/12/23 09:26:17;;;;;;;25.08;9.32;;;0.10;99.90;;;;;;4227758;28;20055;-85
2021/12/23 09:32:52;;;;;;;32.65;9.52;;;1.60;99.90;;;;;;4240023;27;20047;-85
2021/12/23 09:34:56;;;;;;;22.00;9.40;;;-0.40;99.20;;;;;;4227297;28;20511;-86
2021/12/23 09:36:57;;;;;;;24.83;9.68;;;0.10;99.80;;;;;;4251806;27;20430;-88
2021/12/23 09:39:00;;;;;;;21.98;9.73;;;0.10;99.60;;;;;;4227008;28;20044;-86
2021/12/23 09:41:20;;;;;;;19.90;8.13;;;0.10;99.70;;;;;;4236469;28;20055;-86
2021/12/23 09:43:25;;;;;;;27.33;9.30;;;0.20;99.90;;;;;;4252990;27;20047;-87
2021/12/23 09:45:25;;;;;;;29.60;10.13;;;0.70;99.90;;;;;;4235611;28;20043;-85
2021/12/23 09:47:30;;;;;;;28.33;9.43;;;1.20;99.90;;;;;;4238273;27;20137;-86
2021/12/23 09:49:32;;;;;;;25.75;9.77;;;0.30;99.90;;;;;;4221565;28;20083;-86
2021/12/23 09:51:34;;;;;;;27.73;10.15;;;0.10;99.90;;;;;;4248506;27;20046;-87
2021/12/23 09:53:39;;;;;;;25.08;9.38;;;0.70;99.90;;;;;;4233971;28;20047;-87
2021/12/23 09:55:43;;;;;;;22.60;9.82;;;0.10;99.90;;;;;;4219507;28;20044;-87
2021/12/23 09:57:51;;;;;;;25.63;9.70;;;0.10;99.90;;;;;;4220161;28;20044;-86
2021/12/23 09:59:53;;;;;;;26.67;11.02;;;0.00;99.90;;;;;;4252984;27;20065;-87
2021/12/23 10:01:56;;;;;;;24.50;9.95;;;1.10;99.90;;;;;;4253697;28;20587;-86
2021/12/23 10:04:01;;;;;;;35.13;11.05;;;0.70;99.90;;;;;;4253176;28;20129;-86
2021/12/23 10:06:04;;;;;;;26.60;10.52;;;0.10;99.90;;;;;;4237163;28;20074;-86
2021/12/23 10:08:06;;;;;;;26.08;10.05;;;0.10;99.90;;;;;;4224792;28;20050;-85
2021/12/23 10:10:14;;;;;;;30.05;10.77;;;1.00;99.90;;;;;;4220969;28;20589;-86
2021/12/23 10:27:29;;;;;;;32.95;10.90;;;1.30;99.90;;;;;;4248672;27;20067;-85
2021/12/23 10:31:51;;;;;;;33.45;11.85;;;0.00;99.90;;;;;;4208916;28;20063;-86
2021/12/23 10:38:52;;;;;;;33.90;11.07;;;0.00;99.90;;;;;;4260323;27;20100;-86
2021/12/23 10:40:58;;;;;;;38.00;12.25;;;0.80;99.90;;;;;;4234237;28;20055;-86
2021/12/23 10:43:02;;;;;;;36.70;12.82;;;0.10;99.90;;;;;;4226752;28;20137;-86
2021/12/23 10:45:13;;;;;;;35.08;12.38;;;0.00;99.90;;;;;;4225396;28;20044;-84
2021/12/23 10:47:38;;;;;;;31.83;11.32;;;0.00;99.90;;;;;;4251398;27;20043;-85
2021/12/23 10:49:49;;;;;;;32.47;12.63;;;0.00;99.90;;;;;;4236275;28;20418;-86
2021/12/23 10:52:15;;;;;;;35.28;12.65;;;0.00;99.90;;;;;;4256991;27;20069;-86
2021/12/23 10:59:19;;;;;;;34.80;11.18;;;-0.10;99.90;;;;;;4240534;28;20054;-86
2021/12/23 11:01:26;;;;;;;37.97;13.70;;;1.50;99.90;;;;;;4245490;27;20031;-85
2021/12/23 11:03:42;;;;;;;36.25;12.52;;;0.10;99.90;;;;;;4248218;27;20046;-86
2021/12/23 11:06:04;;;;;;;36.03;12.70;;;0.00;99.90;;;;;;4229908;28;20081;-86
2021/12/23 11:08:23;;;;;;;38.22;12.65;;;0.10;99.90;;;;;;4242896;27;20047;-87
2021/12/23 11:43:54;;;;;;;48.97;14.75;;;1.10;99.90;;;;;;4257577;27;20483;-88
2021/12/23 11:45:54;;;;;;;36.10;12.20;;;0.30;99.90;;;;;;4237895;28;20055;-85
2021/12/23 11:47:57;;;;;;;39.35;13.77;;;1.40;99.90;;;;;;4238644;28;20103;-85
2021/12/23 11:50:00;;;;;;;41.70;13.00;;;0.60;99.90;;;;;;4245163;27;20031;-85
2021/12/23 11:52:02;;;;;;;37.33;13.02;;;0.60;99.90;;;;;;4248701;27;20044;-84
2021/12/23 11:54:05;;;;;;;39.15;14.45;;;0.20;99.90;;;;;;4238205;28;20059;-87